sensor_id;sensor_type;location;lat;lon;timestamp;temperature;humidity
13561;DHT22;6852;51.686;5.314;2022-11-14T00:01:07;8.30;99.90
13561;DHT22;6852;51.686;5.314;2022-11-14T00:03:34;8.30;99.90
13561;DHT22;6852;51.686;5.314;2022-11-14T00:06:04;8.20;99.90
13561;DHT22;6852;51.686;5.314;2022-11-14T00:08:32;8.20;99.90
13561;DHT22;6852;51.686;5.314;2022-11-14T00:10:59;8.20;99.90
13561;DHT22;6852;51.686;5.314;2022-11-14T00:13:26;8.20;99.90
13561;DHT22;6852;51.686;5.314;2022-11-14T00:15:53;8.10;99.90
13561;DHT22;6852;51.686;5.314;2022-11-14T00:18:21;8.10;99.90
13561;DHT22;6852;51.686;5.314;2022-11-14T00:20:51;8.10;99.90
13561;DHT22;6852;51.686;5.314;2022-11-14T00:23:19;8.10;99.90
13561;DHT22;6852;51.686;5.314;2022-11-14T00:25:46;8.10;99.90
13561;DHT22;6852;51.686;5.314;2022-11-14T00:28:14;8.10;99.90
13561;DHT22;6852;51.686;5.314;2022-11-14T00:30:41;8.10;99.90
13561;DHT22;6852;51.686;5.314;2022-11-14T00:33:07;8.10;99.90
13561;DHT22;6852;51.686;5.314;2022-11-14T00:35:34;8.00;99.90
13561;DHT22;6852;51.686;5.314;2022-11-14T00:38:01;8.00;99.90
13561;DHT22;6852;51.686;5.314;2022-11-14T00:40:28;7.90;99.90
13561;DHT22;6852;51.686;5.314;2022-11-14T00:42:54;7.90;99.90
13561;DHT22;6852;51.686;5.314;2022-11-14T00:45:21;7.90;99.90
13561;DHT22;6852;51.686;5.314;2022-11-14T00:47:48;8.00;99.90
13561;DHT22;6852;51.686;5.314;2022-11-14T00:50:16;8.00;99.90
13561;DHT22;6852;51.686;5.314;2022-11-14T00:52:42;7.90;99.90
13561;DHT22;6852;51.686;5.314;2022-11-14T00:55:09;8.00;99.90
13561;DHT22;6852;51.686;5.314;2022-11-14T00:57:36;7.90;99.90
13561;DHT22;6852;51.686;5.314;2022-11-14T01:00:04;8.00;99.90
13561;DHT22;6852;51.686;5.314;2022-11-14T01:02:31;7.90;99.90
13561;DHT22;6852;51.686;5.314;2022-11-14T01:04:58;7.80;99.90
13561;DHT22;6852;51.686;5.314;2022-11-14T01:07:25;7.70;99.90
13561;DHT22;6852;51.686;5.314;2022-11-14T01:09:52;7.70;99.90
13561;DHT22;6852;51.686;5.314;2022-11-14T01:12:19;7.70;99.90
13561;DHT22;6852;51.686;5.314;2022-11-14T01:14:46;7.70;99.90
13561;DHT22;6852;51.686;5.314;2022-11-14T01:17:13;7.70;99.90
13561;DHT22;6852;51.686;5.314;2022-11-14T01:19:40;7.70;99.90
13561;DHT22;6852;51.686;5.314;2022-11-14T01:22:06;7.70;99.90
13561;DHT22;6852;51.686;5.314;2022-11-14T01:24:33;7.70;99.90
13561;DHT22;6852;51.686;5.314;2022-11-14T01:27:01;7.70;99.90
13561;DHT22;6852;51.686;5.314;2022-11-14T01:29:28;7.70;99.90
13561;DHT22;6852;51.686;5.314;2022-11-14T01:31:55;7.60;99.90
13561;DHT22;6852;51.686;5.314;2022-11-14T01:34:22;7.60;99.90
13561;DHT22;6852;51.686;5.314;2022-11-14T01:36:49;7.60;99.90
13561;DHT22;6852;51.686;5.314;2022-11-14T01:39:16;7.60;99.90
13561;DHT22;6852;51.686;5.314;2022-11-14T01:41:42;7.60;99.90
13561;DHT22;6852;51.686;5.314;2022-11-14T01:44:16;7.50;99.90
13561;DHT22;6852;51.686;5.314;2022-11-14T01:46:46;7.50;99.90
13561;DHT22;6852;51.686;5.314;2022-11-14T01:49:25;7.50;99.90
13561;DHT22;6852;51.686;5.314;2022-11-14T01:52:13;7.50;99.90
13561;DHT22;6852;51.686;5.314;2022-11-14T01:54:45;7.50;99.90
13561;DHT22;6852;51.686;5.314;2022-11-14T01:57:14;7.50;99.90
13561;DHT22;6852;51.686;5.314;2022-11-14T01:59:46;7.50;99.90
13561;DHT22;6852;51.686;5.314;2022-11-14T02:02:21;7.50;99.90
13561;DHT22;6852;51.686;5.314;2022-11-14T02:04:52;7.50;99.90
13561;DHT22;6852;51.686;5.314;2022-11-14T02:07:22;7.50;99.90
13561;DHT22;6852;51.686;5.314;2022-11-14T02:09:50;7.50;99.90
13561;DHT22;6852;51.686;5.314;2022-11-14T02:12:19;7.40;99.90
13561;DHT22;6852;51.686;5.314;2022-11-14T02:14:48;7.40;99.90
13561;DHT22;6852;51.686;5.314;2022-11-14T02:17:17;7.40;99.90
13561;DHT22;6852;51.686;5.314;2022-11-14T02:22:31;7.40;99.90
13561;DHT22;6852;51.686;5.314;2022-11-14T02:24:58;7.30;99.90
13561;DHT22;6852;51.686;5.314;2022-11-14T02:27:25;7.30;99.90
13561;DHT22;6852;51.686;5.314;2022-11-14T02:29:52;7.30;99.90
13561;DHT22;6852;51.686;5.314;2022-11-14T02:32:19;7.10;99.90
13561;DHT22;6852;51.686;5.314;2022-11-14T02:34:45;7.10;99.90
13561;DHT22;6852;51.686;5.314;2022-11-14T02:37:12;7.10;99.90
13561;DHT22;6852;51.686;5.314;2022-11-14T02:39:39;7.00;99.90
13561;DHT22;6852;51.686;5.314;2022-11-14T02:42:06;7.00;99.90
13561;DHT22;6852;51.686;5.314;2022-11-14T02:44:33;7.00;99.90
13561;DHT22;6852;51.686;5.314;2022-11-14T02:46:59;7.00;99.90
13561;DHT22;6852;51.686;5.314;2022-11-14T02:49:26;7.00;99.90
13561;DHT22;6852;51.686;5.314;2022-11-14T02:51:53;6.90;99.90
13561;DHT22;6852;51.686;5.314;2022-11-14T02:54:19;6.90;99.90
13561;DHT22;6852;51.686;5.314;2022-11-14T02:56:46;6.90;99.90
13561;DHT22;6852;51.686;5.314;2022-11-14T02:59:13;6.80;99.90
13561;DHT22;6852;51.686;5.314;2022-11-14T03:01:40;6.80;99.90
13561;DHT22;6852;51.686;5.314;2022-11-14T03:04:07;6.70;99.90
13561;DHT22;6852;51.686;5.314;2022-11-14T03:06:33;6.80;99.90
13561;DHT22;6852;51.686;5.314;2022-11-14T03:09:00;6.80;99.90
13561;DHT22;6852;51.686;5.314;2022-11-14T03:11:27;6.70;99.90
13561;DHT22;6852;51.686;5.314;2022-11-14T03:13:54;6.70;99.90
13561;DHT22;6852;51.686;5.314;2022-11-14T03:16:21;6.60;99.90
13561;DHT22;6852;51.686;5.314;2022-11-14T03:18:47;6.60;99.90
13561;DHT22;6852;51.686;5.314;2022-11-14T03:21:17;6.60;99.90
13561;DHT22;6852;51.686;5.314;2022-11-14T03:23:44;6.50;99.90
13561;DHT22;6852;51.686;5.314;2022-11-14T03:26:13;6.50;99.90
13561;DHT22;6852;51.686;5.314;2022-11-14T03:28:41;6.60;99.90
13561;DHT22;6852;51.686;5.314;2022-11-14T03:31:10;6.60;99.90
13561;DHT22;6852;51.686;5.314;2022-11-14T03:33:37;6.60;99.90
13561;DHT22;6852;51.686;5.314;2022-11-14T03:36:05;6.60;99.90
13561;DHT22;6852;51.686;5.314;2022-11-14T03:38:33;6.50;99.90
13561;DHT22;6852;51.686;5.314;2022-11-14T03:41:00;6.50;99.90
13561;DHT22;6852;51.686;5.314;2022-11-14T03:43:30;6.50;99.90
13561;DHT22;6852;51.686;5.314;2022-11-14T03:45:59;6.50;99.90
13561;DHT22;6852;51.686;5.314;2022-11-14T03:48:27;6.40;99.90
13561;DHT22;6852;51.686;5.314;2022-11-14T03:50:55;6.50;99.90
13561;DHT22;6852;51.686;5.314;2022-11-14T03:53:22;6.40;99.90
13561;DHT22;6852;51.686;5.314;2022-11-14T03:55:50;6.40;99.90
13561;DHT22;6852;51.686;5.314;2022-11-14T03:58:17;6.40;99.90
13561;DHT22;6852;51.686;5.314;2022-11-14T04:00:44;6.30;99.90
13561;DHT22;6852;51.686;5.314;2022-11-14T04:03:11;6.20;99.90
13561;DHT22;6852;51.686;5.314;2022-11-14T04:05:37;6.10;99.90
13561;DHT22;6852;51.686;5.314;2022-11-14T04:08:05;6.00;99.90
13561;DHT22;6852;51.686;5.314;2022-11-14T04:10:32;5.90;99.90
13561;DHT22;6852;51.686;5.314;2022-11-14T04:12:59;5.80;99.90
13561;DHT22;6852;51.686;5.314;2022-11-14T04:15:25;5.90;99.90
13561;DHT22;6852;51.686;5.314;2022-11-14T04:17:52;5.90;99.90
13561;DHT22;6852;51.686;5.314;2022-11-14T04:20:19;6.00;99.90
13561;DHT22;6852;51.686;5.314;2022-11-14T04:22:46;5.90;99.90
13561;DHT22;6852;51.686;5.314;2022-11-14T04:25:12;5.80;99.90
13561;DHT22;6852;51.686;5.314;2022-11-14T04:27:39;5.80;99.90
13561;DHT22;6852;51.686;5.314;2022-11-14T04:30:07;5.80;99.90
13561;DHT22;6852;51.686;5.314;2022-11-14T04:32:33;5.80;99.90
13561;DHT22;6852;51.686;5.314;2022-11-14T04:35:00;5.90;99.90
13561;DHT22;6852;51.686;5.314;2022-11-14T04:37:27;5.90;99.90
13561;DHT22;6852;51.686;5.314;2022-11-14T04:39:54;5.90;99.90
13561;DHT22;6852;51.686;5.314;2022-11-14T04:42:26;5.90;99.90
13561;DHT22;6852;51.686;5.314;2022-11-14T04:44:53;5.70;99.90
13561;DHT22;6852;51.686;5.314;2022-11-14T04:47:20;5.60;99.90
13561;DHT22;6852;51.686;5.314;2022-11-14T04:49:47;5.50;99.90
13561;DHT22;6852;51.686;5.314;2022-11-14T04:52:13;5.50;99.90
13561;DHT22;6852;51.686;5.314;2022-11-14T04:54:40;5.40;99.90
13561;DHT22;6852;51.686;5.314;2022-11-14T04:57:07;5.40;99.90
13561;DHT22;6852;51.686;5.314;2022-11-14T04:59:34;5.40;99.90
13561;DHT22;6852;51.686;5.314;2022-11-14T05:02:01;5.50;99.90
13561;DHT22;6852;51.686;5.314;2022-11-14T05:04:27;5.40;99.90
13561;DHT22;6852;51.686;5.314;2022-11-14T05:06:54;5.30;99.90
13561;DHT22;6852;51.686;5.314;2022-11-14T05:09:21;5.20;99.90
13561;DHT22;6852;51.686;5.314;2022-11-14T05:11:48;5.10;99.90
13561;DHT22;6852;51.686;5.314;2022-11-14T05:14:15;5.10;99.90
13561;DHT22;6852;51.686;5.314;2022-11-14T05:16:41;5.00;99.90
13561;DHT22;6852;51.686;5.314;2022-11-14T05:19:08;4.90;99.90
13561;DHT22;6852;51.686;5.314;2022-11-14T05:21:35;4.90;99.90
13561;DHT22;6852;51.686;5.314;2022-11-14T05:24:02;4.90;99.90
13561;DHT22;6852;51.686;5.314;2022-11-14T05:26:29;4.80;99.90
13561;DHT22;6852;51.686;5.314;2022-11-14T05:28:56;4.90;99.90
13561;DHT22;6852;51.686;5.314;2022-11-14T05:31:22;4.90;99.90
13561;DHT22;6852;51.686;5.314;2022-11-14T05:33:49;4.90;99.90
13561;DHT22;6852;51.686;5.314;2022-11-14T05:36:17;5.00;99.90
13561;DHT22;6852;51.686;5.314;2022-11-14T05:38:43;4.90;99.90
13561;DHT22;6852;51.686;5.314;2022-11-14T05:41:16;5.00;99.90
13561;DHT22;6852;51.686;5.314;2022-11-14T05:43:43;4.90;99.90
13561;DHT22;6852;51.686;5.314;2022-11-14T05:46:12;4.90;99.90
13561;DHT22;6852;51.686;5.314;2022-11-14T05:48:39;4.90;99.90
13561;DHT22;6852;51.686;5.314;2022-11-14T05:51:08;4.80;99.90
13561;DHT22;6852;51.686;5.314;2022-11-14T05:53:36;4.90;99.90
13561;DHT22;6852;51.686;5.314;2022-11-14T05:56:05;4.80;99.90
13561;DHT22;6852;51.686;5.314;2022-11-14T05:58:33;4.80;99.90
13561;DHT22;6852;51.686;5.314;2022-11-14T06:01:18;4.80;99.90
13561;DHT22;6852;51.686;5.314;2022-11-14T06:03:46;4.80;99.90
13561;DHT22;6852;51.686;5.314;2022-11-14T06:06:16;4.80;99.90
13561;DHT22;6852;51.686;5.314;2022-11-14T06:08:44;4.80;99.90
13561;DHT22;6852;51.686;5.314;2022-11-14T06:11:13;4.90;99.90
13561;DHT22;6852;51.686;5.314;2022-11-14T06:13:41;4.90;99.90
13561;DHT22;6852;51.686;5.314;2022-11-14T06:16:11;5.00;99.90
13561;DHT22;6852;51.686;5.314;2022-11-14T06:18:38;5.00;99.90
13561;DHT22;6852;51.686;5.314;2022-11-14T06:21:17;5.00;99.90
13561;DHT22;6852;51.686;5.314;2022-11-14T06:23:45;5.00;99.90
13561;DHT22;6852;51.686;5.314;2022-11-14T06:26:27;5.00;99.90
13561;DHT22;6852;51.686;5.314;2022-11-14T06:28:56;5.00;99.90
13561;DHT22;6852;51.686;5.314;2022-11-14T06:31:24;5.00;99.90
13561;DHT22;6852;51.686;5.314;2022-11-14T06:33:51;5.00;99.90
13561;DHT22;6852;51.686;5.314;2022-11-14T06:36:18;5.00;99.90
13561;DHT22;6852;51.686;5.314;2022-11-14T06:38:45;5.00;99.90
13561;DHT22;6852;51.686;5.314;2022-11-14T06:41:14;5.10;99.90
13561;DHT22;6852;51.686;5.314;2022-11-14T06:43:43;5.00;99.90
13561;DHT22;6852;51.686;5.314;2022-11-14T06:46:12;5.00;99.90
13561;DHT22;6852;51.686;5.314;2022-11-14T06:48:40;4.90;99.90
13561;DHT22;6852;51.686;5.314;2022-11-14T06:51:15;4.90;99.90
13561;DHT22;6852;51.686;5.314;2022-11-14T06:53:43;5.00;99.90
13561;DHT22;6852;51.686;5.314;2022-11-14T06:56:12;5.00;99.90
13561;DHT22;6852;51.686;5.314;2022-11-14T06:58:42;5.00;99.90
13561;DHT22;6852;51.686;5.314;2022-11-14T07:01:13;5.00;99.90
13561;DHT22;6852;51.686;5.314;2022-11-14T07:03:40;5.00;99.90
13561;DHT22;6852;51.686;5.314;2022-11-14T07:06:09;5.10;99.90
13561;DHT22;6852;51.686;5.314;2022-11-14T07:08:37;5.10;99.90
13561;DHT22;6852;51.686;5.314;2022-11-14T07:11:10;5.10;99.90
13561;DHT22;6852;51.686;5.314;2022-11-14T07:13:37;5.10;99.90
13561;DHT22;6852;51.686;5.314;2022-11-14T07:16:04;5.20;99.90
13561;DHT22;6852;51.686;5.314;2022-11-14T07:18:32;5.20;99.90
13561;DHT22;6852;51.686;5.314;2022-11-14T07:21:02;5.20;99.90
13561;DHT22;6852;51.686;5.314;2022-11-14T07:23:31;5.20;99.90
13561;DHT22;6852;51.686;5.314;2022-11-14T07:26:02;5.20;99.90
13561;DHT22;6852;51.686;5.314;2022-11-14T07:28:30;5.30;99.90
13561;DHT22;6852;51.686;5.314;2022-11-14T07:30:58;5.30;99.90
13561;DHT22;6852;51.686;5.314;2022-11-14T07:33:25;5.40;99.90
13561;DHT22;6852;51.686;5.314;2022-11-14T07:35:51;5.60;99.90
13561;DHT22;6852;51.686;5.314;2022-11-14T07:38:18;5.70;99.90
13561;DHT22;6852;51.686;5.314;2022-11-14T07:41:02;5.80;99.90
13561;DHT22;6852;51.686;5.314;2022-11-14T07:43:29;5.80;99.90
13561;DHT22;6852;51.686;5.314;2022-11-14T07:46:01;5.90;99.90
13561;DHT22;6852;51.686;5.314;2022-11-14T07:48:29;6.00;99.90
13561;DHT22;6852;51.686;5.314;2022-11-14T07:50:58;6.00;99.90
13561;DHT22;6852;51.686;5.314;2022-11-14T07:53:26;5.90;99.90
13561;DHT22;6852;51.686;5.314;2022-11-14T07:55:53;5.90;99.90
13561;DHT22;6852;51.686;5.314;2022-11-14T07:58:20;5.80;99.90
13561;DHT22;6852;51.686;5.314;2022-11-14T08:00:46;6.00;99.90
13561;DHT22;6852;51.686;5.314;2022-11-14T08:03:14;5.80;99.90
13561;DHT22;6852;51.686;5.314;2022-11-14T08:05:40;5.80;99.90
13561;DHT22;6852;51.686;5.314;2022-11-14T08:08:07;5.70;99.90
13561;DHT22;6852;51.686;5.314;2022-11-14T08:10:34;5.60;99.90
13561;DHT22;6852;51.686;5.314;2022-11-14T08:13:03;5.50;99.90
13561;DHT22;6852;51.686;5.314;2022-11-14T08:15:50;5.40;99.90
13561;DHT22;6852;51.686;5.314;2022-11-14T08:18:17;5.40;99.90
13561;DHT22;6852;51.686;5.314;2022-11-14T08:20:44;5.50;99.90
13561;DHT22;6852;51.686;5.314;2022-11-14T08:23:11;5.60;99.90
13561;DHT22;6852;51.686;5.314;2022-11-14T08:25:39;5.60;99.90
13561;DHT22;6852;51.686;5.314;2022-11-14T08:28:06;5.80;99.90
13561;DHT22;6852;51.686;5.314;2022-11-14T08:30:32;5.80;99.90
13561;DHT22;6852;51.686;5.314;2022-11-14T08:33:03;5.90;99.90
13561;DHT22;6852;51.686;5.314;2022-11-14T08:35:32;6.00;99.90
13561;DHT22;6852;51.686;5.314;2022-11-14T08:38:02;6.40;99.90
13561;DHT22;6852;51.686;5.314;2022-11-14T08:40:29;6.50;99.90
13561;DHT22;6852;51.686;5.314;2022-11-14T08:43:00;6.40;99.90
13561;DHT22;6852;51.686;5.314;2022-11-14T08:45:28;6.50;99.90
13561;DHT22;6852;51.686;5.314;2022-11-14T08:47:55;6.60;99.90
13561;DHT22;6852;51.686;5.314;2022-11-14T08:50:22;6.80;99.90
13561;DHT22;6852;51.686;5.314;2022-11-14T08:52:50;6.60;99.90
13561;DHT22;6852;51.686;5.314;2022-11-14T08:55:19;6.70;99.90
13561;DHT22;6852;51.686;5.314;2022-11-14T08:57:46;6.70;99.90
13561;DHT22;6852;51.686;5.314;2022-11-14T09:00:16;6.90;99.90
13561;DHT22;6852;51.686;5.314;2022-11-14T09:02:42;6.90;99.90
13561;DHT22;6852;51.686;5.314;2022-11-14T09:05:10;6.90;99.90
13561;DHT22;6852;51.686;5.314;2022-11-14T09:07:36;7.20;99.90
13561;DHT22;6852;51.686;5.314;2022-11-14T09:10:04;7.60;99.90
13561;DHT22;6852;51.686;5.314;2022-11-14T09:12:31;7.90;99.90
13561;DHT22;6852;51.686;5.314;2022-11-14T09:14:58;8.40;99.90
13561;DHT22;6852;51.686;5.314;2022-11-14T09:17:25;8.80;99.90
13561;DHT22;6852;51.686;5.314;2022-11-14T09:19:52;9.00;99.90
13561;DHT22;6852;51.686;5.314;2022-11-14T09:22:19;9.30;99.90
13561;DHT22;6852;51.686;5.314;2022-11-14T09:24:46;9.30;99.90
13561;DHT22;6852;51.686;5.314;2022-11-14T09:27:13;9.40;99.90
13561;DHT22;6852;51.686;5.314;2022-11-14T09:29:40;9.70;99.90
13561;DHT22;6852;51.686;5.314;2022-11-14T09:32:07;9.80;99.90
13561;DHT22;6852;51.686;5.314;2022-11-14T09:34:33;10.00;99.90
13561;DHT22;6852;51.686;5.314;2022-11-14T09:37:00;9.90;99.90
13561;DHT22;6852;51.686;5.314;2022-11-14T09:39:27;9.60;99.90
13561;DHT22;6852;51.686;5.314;2022-11-14T09:44:58;9.80;99.90
13561;DHT22;6852;51.686;5.314;2022-11-14T09:47:55;10.20;99.90
13561;DHT22;6852;51.686;5.314;2022-11-14T09:50:32;10.30;99.90
13561;DHT22;6852;51.686;5.314;2022-11-14T09:53:10;10.10;99.90
13561;DHT22;6852;51.686;5.314;2022-11-14T09:55:40;10.20;99.90
13561;DHT22;6852;51.686;5.314;2022-11-14T09:58:12;10.20;99.90
13561;DHT22;6852;51.686;5.314;2022-11-14T10:00:55;9.90;99.90
13561;DHT22;6852;51.686;5.314;2022-11-14T10:10:53;10.30;99.90
13561;DHT22;6852;51.686;5.314;2022-11-14T10:13:35;10.50;99.90
13561;DHT22;6852;51.686;5.314;2022-11-14T10:18:44;10.40;99.90
13561;DHT22;6852;51.686;5.314;2022-11-14T10:21:20;10.40;99.90
13561;DHT22;6852;51.686;5.314;2022-11-14T10:26:28;10.40;99.90
13561;DHT22;6852;51.686;5.314;2022-11-14T10:40:22;10.60;99.90
13561;DHT22;6852;51.686;5.314;2022-11-14T10:42:54;10.30;99.90
13561;DHT22;6852;51.686;5.314;2022-11-14T10:45:29;10.20;99.90
13561;DHT22;6852;51.686;5.314;2022-11-14T10:48:42;10.10;99.90
13561;DHT22;6852;51.686;5.314;2022-11-14T10:51:02;10.20;99.90
13561;DHT22;6852;51.686;5.314;2022-11-14T10:56:33;10.20;99.90
13561;DHT22;6852;51.686;5.314;2022-11-14T10:59:00;10.20;99.90
13561;DHT22;6852;51.686;5.314;2022-11-14T11:04:20;10.00;99.90
13561;DHT22;6852;51.686;5.314;2022-11-14T11:06:50;10.20;99.90
13561;DHT22;6852;51.686;5.314;2022-11-14T11:09:20;10.20;99.90
13561;DHT22;6852;51.686;5.314;2022-11-14T11:12:22;10.40;99.90
13561;DHT22;6852;51.686;5.314;2022-11-14T11:15:17;10.60;99.90
13561;DHT22;6852;51.686;5.314;2022-11-14T11:20:36;11.10;99.90
13561;DHT22;6852;51.686;5.314;2022-11-14T11:25:38;11.50;99.90
13561;DHT22;6852;51.686;5.314;2022-11-14T11:33:32;11.80;99.90
13561;DHT22;6852;51.686;5.314;2022-11-14T11:36:15;12.00;99.90
13561;DHT22;6852;51.686;5.314;2022-11-14T11:38:43;12.30;99.90
13561;DHT22;6852;51.686;5.314;2022-11-14T11:44:12;12.10;99.90
13561;DHT22;6852;51.686;5.314;2022-11-14T11:46:51;12.30;99.90
13561;DHT22;6852;51.686;5.314;2022-11-14T11:49:30;12.30;99.90
13561;DHT22;6852;51.686;5.314;2022-11-14T11:52:04;12.20;99.90
13561;DHT22;6852;51.686;5.314;2022-11-14T11:57:34;12.30;99.90
13561;DHT22;6852;51.686;5.314;2022-11-14T12:00:22;12.30;99.90
13561;DHT22;6852;51.686;5.314;2022-11-14T12:02:50;12.10;99.90
13561;DHT22;6852;51.686;5.314;2022-11-14T12:11:08;12.20;99.90
13561;DHT22;6852;51.686;5.314;2022-11-14T12:19:45;12.10;99.90
13561;DHT22;6852;51.686;5.314;2022-11-14T12:30:33;11.10;99.90
13561;DHT22;6852;51.686;5.314;2022-11-14T12:33:34;10.90;99.90
13561;DHT22;6852;51.686;5.314;2022-11-14T12:36:05;10.60;99.90
13561;DHT22;6852;51.686;5.314;2022-11-14T12:38:47;10.50;99.90
13561;DHT22;6852;51.686;5.314;2022-11-14T12:41:35;10.40;99.90
13561;DHT22;6852;51.686;5.314;2022-11-14T12:49:36;9.90;99.90
13561;DHT22;6852;51.686;5.314;2022-11-14T12:52:06;9.90;99.90
13561;DHT22;6852;51.686;5.314;2022-11-14T12:54:51;10.00;99.90
13561;DHT22;6852;51.686;5.314;2022-11-14T12:57:30;10.10;99.90
13561;DHT22;6852;51.686;5.314;2022-11-14T13:00:16;10.00;99.90
13561;DHT22;6852;51.686;5.314;2022-11-14T13:05:58;10.10;99.90
13561;DHT22;6852;51.686;5.314;2022-11-14T13:11:35;10.40;99.90
13561;DHT22;6852;51.686;5.314;2022-11-14T13:14:21;10.50;99.90
13561;DHT22;6852;51.686;5.314;2022-11-14T13:20:04;10.60;99.90
13561;DHT22;6852;51.686;5.314;2022-11-14T13:33:44;10.80;99.90
13561;DHT22;6852;51.686;5.314;2022-11-14T13:50:35;10.80;99.90
13561;DHT22;6852;51.686;5.314;2022-11-14T13:53:14;10.60;99.90
13561;DHT22;6852;51.686;5.314;2022-11-14T14:07:49;10.50;99.90
13561;DHT22;6852;51.686;5.314;2022-11-14T14:11:19;10.40;99.90
13561;DHT22;6852;51.686;5.314;2022-11-14T14:19:36;10.30;99.90
13561;DHT22;6852;51.686;5.314;2022-11-14T14:22:17;10.40;99.90
13561;DHT22;6852;51.686;5.314;2022-11-14T14:30:36;10.40;99.90
13561;DHT22;6852;51.686;5.314;2022-11-14T14:35:35;10.30;99.90
13561;DHT22;6852;51.686;5.314;2022-11-14T14:38:24;10.30;99.90
13561;DHT22;6852;51.686;5.314;2022-11-14T14:40:53;10.40;99.90
13561;DHT22;6852;51.686;5.314;2022-11-14T14:43:34;10.20;99.90
13561;DHT22;6852;51.686;5.314;2022-11-14T14:46:01;10.30;99.90
13561;DHT22;6852;51.686;5.314;2022-11-14T14:48:30;10.30;99.90
13561;DHT22;6852;51.686;5.314;2022-11-14T14:50:59;10.30;99.90
13561;DHT22;6852;51.686;5.314;2022-11-14T14:53:31;10.20;99.90
13561;DHT22;6852;51.686;5.314;2022-11-14T14:56:00;10.00;99.90
13561;DHT22;6852;51.686;5.314;2022-11-14T14:58:29;10.10;99.90
13561;DHT22;6852;51.686;5.314;2022-11-14T15:03:39;10.00;99.90
13561;DHT22;6852;51.686;5.314;2022-11-14T15:06:34;10.00;99.90
13561;DHT22;6852;51.686;5.314;2022-11-14T15:09:09;9.80;99.90
13561;DHT22;6852;51.686;5.314;2022-11-14T15:11:40;9.70;99.90
13561;DHT22;6852;51.686;5.314;2022-11-14T15:14:22;9.80;99.90
13561;DHT22;6852;51.686;5.314;2022-11-14T15:16:50;9.70;99.90
13561;DHT22;6852;51.686;5.314;2022-11-14T15:19:41;9.70;99.90
13561;DHT22;6852;51.686;5.314;2022-11-14T15:24:36;9.70;99.90
13561;DHT22;6852;51.686;5.314;2022-11-14T15:27:23;9.70;99.90
13561;DHT22;6852;51.686;5.314;2022-11-14T15:29:52;9.50;99.90
13561;DHT22;6852;51.686;5.314;2022-11-14T15:32:23;9.50;99.90
13561;DHT22;6852;51.686;5.314;2022-11-14T15:35:09;9.50;99.90
13561;DHT22;6852;51.686;5.314;2022-11-14T15:43:45;9.50;99.90
13561;DHT22;6852;51.686;5.314;2022-11-14T15:48:58;9.30;99.90
13561;DHT22;6852;51.686;5.314;2022-11-14T15:54:24;9.40;99.90
13561;DHT22;6852;51.686;5.314;2022-11-14T15:56:53;9.40;99.90
13561;DHT22;6852;51.686;5.314;2022-11-14T15:59:20;9.30;99.90
13561;DHT22;6852;51.686;5.314;2022-11-14T16:01:50;9.30;99.90
13561;DHT22;6852;51.686;5.314;2022-11-14T16:04:19;9.30;99.90
13561;DHT22;6852;51.686;5.314;2022-11-14T16:06:47;9.20;99.90
13561;DHT22;6852;51.686;5.314;2022-11-14T16:09:16;9.20;99.90
13561;DHT22;6852;51.686;5.314;2022-11-14T16:11:43;9.20;99.90
13561;DHT22;6852;51.686;5.314;2022-11-14T16:14:10;9.20;99.90
13561;DHT22;6852;51.686;5.314;2022-11-14T16:16:38;9.10;99.90
13561;DHT22;6852;51.686;5.314;2022-11-14T16:19:05;9.00;99.90
13561;DHT22;6852;51.686;5.314;2022-11-14T16:21:32;9.00;99.90
13561;DHT22;6852;51.686;5.314;2022-11-14T16:23:59;8.80;99.90
13561;DHT22;6852;51.686;5.314;2022-11-14T16:26:26;8.80;99.90
13561;DHT22;6852;51.686;5.314;2022-11-14T16:28:55;8.80;99.90
13561;DHT22;6852;51.686;5.314;2022-11-14T16:31:23;8.80;99.90
13561;DHT22;6852;51.686;5.314;2022-11-14T16:33:49;8.80;99.90
13561;DHT22;6852;51.686;5.314;2022-11-14T16:36:20;8.90;99.90
13561;DHT22;6852;51.686;5.314;2022-11-14T16:38:47;8.80;99.90
13561;DHT22;6852;51.686;5.314;2022-11-14T16:41:18;8.70;99.90
13561;DHT22;6852;51.686;5.314;2022-11-14T16:43:45;8.60;99.90
13561;DHT22;6852;51.686;5.314;2022-11-14T16:46:12;8.60;99.90
13561;DHT22;6852;51.686;5.314;2022-11-14T16:48:39;8.60;99.90
13561;DHT22;6852;51.686;5.314;2022-11-14T16:51:05;8.50;99.90
13561;DHT22;6852;51.686;5.314;2022-11-14T16:53:55;8.60;99.90
13561;DHT22;6852;51.686;5.314;2022-11-14T16:56:22;8.50;99.90
13561;DHT22;6852;51.686;5.314;2022-11-14T16:58:53;8.50;99.90
13561;DHT22;6852;51.686;5.314;2022-11-14T17:01:21;8.50;99.90
13561;DHT22;6852;51.686;5.314;2022-11-14T17:03:48;8.40;99.90
13561;DHT22;6852;51.686;5.314;2022-11-14T17:06:14;8.40;99.90
13561;DHT22;6852;51.686;5.314;2022-11-14T17:08:41;8.30;99.90
13561;DHT22;6852;51.686;5.314;2022-11-14T17:11:09;8.30;99.90
13561;DHT22;6852;51.686;5.314;2022-11-14T17:13:36;8.30;99.90
13561;DHT22;6852;51.686;5.314;2022-11-14T17:16:04;8.30;99.90
13561;DHT22;6852;51.686;5.314;2022-11-14T17:18:31;8.20;99.90
13561;DHT22;6852;51.686;5.314;2022-11-14T17:21:05;8.30;99.90
13561;DHT22;6852;51.686;5.314;2022-11-14T17:23:32;8.30;99.90
13561;DHT22;6852;51.686;5.314;2022-11-14T17:26:07;8.30;99.90
13561;DHT22;6852;51.686;5.314;2022-11-14T17:28:34;8.20;99.90
13561;DHT22;6852;51.686;5.314;2022-11-14T17:31:07;8.20;99.90
13561;DHT22;6852;51.686;5.314;2022-11-14T17:33:34;8.20;99.90
13561;DHT22;6852;51.686;5.314;2022-11-14T17:36:04;8.30;99.90
13561;DHT22;6852;51.686;5.314;2022-11-14T17:38:32;8.30;99.90
13561;DHT22;6852;51.686;5.314;2022-11-14T17:40:59;8.30;99.90
13561;DHT22;6852;51.686;5.314;2022-11-14T17:43:26;8.20;99.90
13561;DHT22;6852;51.686;5.314;2022-11-14T17:45:57;8.20;99.90
13561;DHT22;6852;51.686;5.314;2022-11-14T17:48:24;8.20;99.90
13561;DHT22;6852;51.686;5.314;2022-11-14T17:50:51;8.20;99.90
13561;DHT22;6852;51.686;5.314;2022-11-14T17:53:18;8.10;99.90
13561;DHT22;6852;51.686;5.314;2022-11-14T17:55:45;8.00;99.90
13561;DHT22;6852;51.686;5.314;2022-11-14T17:58:12;8.10;99.90
13561;DHT22;6852;51.686;5.314;2022-11-14T18:00:40;8.00;99.90
13561;DHT22;6852;51.686;5.314;2022-11-14T18:03:08;8.00;99.90
13561;DHT22;6852;51.686;5.314;2022-11-14T18:05:35;7.90;99.90
13561;DHT22;6852;51.686;5.314;2022-11-14T18:08:02;7.90;99.90
13561;DHT22;6852;51.686;5.314;2022-11-14T18:10:29;7.90;99.90
13561;DHT22;6852;51.686;5.314;2022-11-14T18:12:56;7.90;99.90
13561;DHT22;6852;51.686;5.314;2022-11-14T18:15:22;7.90;99.90
13561;DHT22;6852;51.686;5.314;2022-11-14T18:17:53;7.90;99.90
13561;DHT22;6852;51.686;5.314;2022-11-14T18:20:20;7.80;99.90
13561;DHT22;6852;51.686;5.314;2022-11-14T18:22:47;7.80;99.90
13561;DHT22;6852;51.686;5.314;2022-11-14T18:25:14;7.70;99.90
13561;DHT22;6852;51.686;5.314;2022-11-14T18:27:41;7.70;99.90
13561;DHT22;6852;51.686;5.314;2022-11-14T18:30:09;7.60;99.90
13561;DHT22;6852;51.686;5.314;2022-11-14T18:32:56;7.70;99.90
13561;DHT22;6852;51.686;5.314;2022-11-14T18:35:24;7.70;99.90
13561;DHT22;6852;51.686;5.314;2022-11-14T18:37:51;7.60;99.90
13561;DHT22;6852;51.686;5.314;2022-11-14T18:40:18;7.70;99.90
13561;DHT22;6852;51.686;5.314;2022-11-14T18:42:47;7.70;99.90
13561;DHT22;6852;51.686;5.314;2022-11-14T18:45:13;7.70;99.90
13561;DHT22;6852;51.686;5.314;2022-11-14T18:47:40;7.60;99.90
13561;DHT22;6852;51.686;5.314;2022-11-14T18:50:07;7.60;99.90
13561;DHT22;6852;51.686;5.314;2022-11-14T18:52:34;7.50;99.90